Thursday, May 25, 2017, 8:25 AM EDT

KUNV, State College, University Park Airport

Location: State College, PA, United States Lat: 40.85
Local Time: 8:25 AM EDT (12:25 GMT) Lon: -77.85
Time Zone: US/Eastern Elev: 1240 ft

Show me the last for .
Show Decoded

2017-05-25 07:53 METAR KUNV 251153Z 24006KT 3SM +RA BKN004 BKN009 OVC013 12/11 A2954 =
2017-05-25 06:10 METAR KUNV 251010Z 05004KT 3SM RA OVC009 11/11 A2954 =
2017-05-25 05:53 METAR KUNV 250953Z 05009KT 5SM -RA BKN011 OVC014 11/11 A2955 =
2017-05-25 05:35 METAR KUNV 250935Z AUTO 04009KT 7SM -RA OVC011 12/11 A2955 RMK AO2 P0006
                 T01150106 =
2017-05-25 05:15 METAR KUNV 250915Z AUTO 05007KT 7SM -RA OVC013 12/11 A2957 RMK AO2 P0003
                 T01150105 =
2017-05-25 04:55 METAR KUNV 250855Z AUTO 06006KT 10SM -RA OVC013 12/11 A2957 RMK AO2 T01170105 =
2017-05-25 04:35 METAR KUNV 250835Z AUTO 06007G14KT 10SM -DZ OVC013 12/11 A2959 RMK AO2 T01200105
                 =
2017-05-25 04:15 METAR KUNV 250815Z AUTO 07009KT 10SM -DZ OVC013 12/11 A2960 RMK AO2 T01200105 =
2017-05-25 03:55 METAR KUNV 250755Z AUTO 09005KT 10SM RA OVC015 12/11 A2961 RMK AO2 T01200105 =
2017-05-25 03:35 METAR KUNV 250735Z AUTO 06006KT 10SM -DZ BKN015 OVC021 12/11 A2962 RMK AO2 P0002
                 T01210105 =
2017-05-25 03:15 METAR KUNV 250715Z AUTO 07007KT 10SM DZ BKN015 OVC021 12/11 A2963 RMK AO2 P0001
                 T01210107 =
2017-05-25 02:55 METAR KUNV 250655Z AUTO 00000KT 10SM RA BKN015 OVC021 12/11 A2964 RMK AO2
                 T01220106 =
2017-05-25 02:35 METAR KUNV 250635Z AUTO 09004KT 10SM RA BKN017 OVC022 13/11 A2965 RMK AO2 P0003
                 T01250107 =
2017-05-25 02:15 METAR KUNV 250615Z AUTO 09008G14KT 060V120 10SM -RA BKN021 OVC027 13/11 A2965
                 RMK AO2 P0002 T01260108 =
2017-05-25 01:55 METAR KUNV 250555Z AUTO 09006KT 10SM DZ OVC024 13/11 A2966 RMK AO2 T01300107
                 10173 20130 =
2017-05-25 01:35 METAR KUNV 250535Z AUTO 08008KT 10SM -RA BKN025 OVC030 14/11 A2967 RMK AO2
                 T01360106 =
2017-05-25 01:15 METAR KUNV 250515Z AUTO 09004KT 10SM -RA OVC027 14/10 A2966 RMK AO2 T01440102 =
2017-05-25 00:55 METAR KUNV 250455Z AUTO 11006KT 10SM -DZ BKN027 OVC034 15/10 A2967 RMK AO2
                 T01470102 =
2017-05-25 00:35 METAR KUNV 250435Z AUTO 09008KT 10SM BKN023 OVC029 15/11 A2967 RMK AO2 T01510109
                 =
2017-05-25 00:15 METAR KUNV 250415Z AUTO 09010KT 10SM -DZ OVC023 15/12 A2967 RMK AO2 T01530115 =
2017-05-24 23:55 METAR KUNV 250355Z AUTO 12010G20KT 10SM -RA OVC025 16/11 A2968 RMK AO2 T01600109
                 402070105 =
2017-05-24 23:35 METAR KUNV 250335Z AUTO 11008G17KT 070V150 10SM OVC027 16/11 A2968 RMK AO2
                 T01610110 =
2017-05-24 23:15 METAR KUNV 250315Z AUTO 10011G17KT 10SM OVC027 16/11 A2968 RMK AO2 T01620110 =
2017-05-24 22:55 METAR KUNV 250255Z AUTO 10009G16KT 10SM OVC029 16/11 A2968 RMK AO2 T01620110 =
2017-05-24 22:35 METAR KUNV 250235Z AUTO 12005G14KT 10SM OVC027 16/11 A2969 RMK AO2 T01620110 =
2017-05-24 22:15 METAR KUNV 250215Z AUTO 14008KT 100V170 10SM -DZ OVC029 17/11 A2970 RMK AO2
                 T01650110 =
2017-05-24 20:53 METAR KUNV 250053Z 150013KT 10SM BKN030 OVC043 17/10 A2970 =
2017-05-24 19:53 METAR KUNV 242353Z 150011KT 10SM BKN037 OVC047 17/10 A2970 =
2017-05-24 18:53 METAR KUNV 242253Z 120011KT 090V150 10SM BKN035 OVC043 17/10 A2970 RMK LTG DSNT
                 SW =
2017-05-24 17:53 METAR KUNV 242153Z 12008KT 090V150 10SM OVC047 18/10 A2971 =
2017-05-24 16:53 METAR KUNV 242053Z 15006KT 120V180 10SM OVC047 19/10 A2970 =
2017-05-24 15:53 METAR KUNV 241953Z 14008G17KT 110V190 10SM OVC047 19/10 A2970 =
2017-05-24 14:53 METAR KUNV 241853Z 15008G16KT 120V200 10SM OVC050 20/09 A2971 =
2017-05-24 13:53 METAR KUNV 241753Z 15008G18KT 100V200 10SM SCT050 BKN100 20/10 A2970 =
2017-05-24 12:53 METAR KUNV 241653Z 14010G16KT 110V200 10SM SCT050 20/09 A2970 =
2017-05-24 11:53 METAR KUNV 241553Z 15008G17KT 130V190 10SM SCT030 20/08 A2971 =
2017-05-24 10:53 METAR KUNV 241453Z 18006KT 10SM SCT030 19/10 A2973 =
2017-05-24 09:53 METAR KUNV 241353Z 22004KT 7SM SCT022 17/11 A2973 =
2017-05-24 08:53 METAR KUNV 241253Z 00000KT 7SM SCT100 13/10 A2974 RMK LTG DSNT S =

Support USWX by starting your Amazon purchase here.